KSIY/SIY METAR and TAF weather

Enter ICAO airport designator
Station Type Date Time Source
KSIY METAR 2019/10/19 06:53 UTC NOAA

KSIY 190653Z AUTO 16003KT 10SM OVC050 09/07 A3002 RMK AO2 RAE16 SLP172 P0000 T00890067


Station Type Date Time Source
KSIY Decoded METAR 2019/10/19 06:53 UTC NOAA

MONTAGUE SISKIYOU COUNTY, CA, United States (KSIY) 41-46N 122-28W
Oct 19, 2019 - 02:53 AM EDT / 2019.10.19 0653 UTC
Wind: from the SSE (160 degrees) at 3 MPH (3 KT):0
Visibility: 10 mile(s):0
Sky conditions: overcast
Precipitation last hour: A trace
Temperature: 48.0 F (8.9 C)
Dew Point: 44.1 F (6.7 C)
Relative Humidity: 86%
Pressure (altimeter): 30.02 in. Hg (1016 hPa)
ob: KSIY 190653Z AUTO 16003KT 10SM OVC050 09/07 A3002 RMK AO2 RAE16 SLP172 P0000 T00890067
cycle: 7

Station Type Date Time Source
KSIY TAF UTC NOAA

Error!

Example: see airport list